Time;durP1;ratioP1;P1;durP2;ratioP2;P2;SDS_P1;SDS_P2;PMS_P1;PMS_P2;Temp;Humidity;BMP_temperature;BMP_pressure;BME280_temperature;BME280_humidity;BME280_pressure;Samples;Min_cycle;Max_cycle;Signal;HPM_P1;HPM_P2
2022/08/21 00:00:24;;;;;;;12.48;8.77;;;;;;;15.32;95.36;68470.59;4905319;29;20157;-79
2022/08/21 00:02:53;;;;;;;13.25;8.85;;;;;;;;;;4923568;29;20048;-79
2022/08/21 00:05:19;;;;;;;11.18;8.43;;;;;;;15.23;95.72;68466.28;4922731;29;20037;-78
2022/08/21 00:07:44;;;;;;;15.38;8.48;;;;;;;;;;4917199;29;20048;-80
2022/08/21 00:10:10;;;;;;;15.02;8.52;;;;;;;15.16;95.50;68457.75;4901393;29;20116;-79
2022/08/21 00:12:36;;;;;;;11.25;8.73;;;;;;;15.11;95.69;68452.63;4921093;29;20040;-79
2022/08/21 00:15:02;;;;;;;11.30;9.40;;;;;;;15.12;95.91;68448.97;4913314;29;20043;-80
2022/08/21 00:17:27;;;;;;;13.38;8.35;;;;;;;15.08;95.43;68449.22;4913027;29;20044;-80
2022/08/21 00:19:52;;;;;;;10.77;8.75;;;;;;;15.00;96.32;68440.66;4911811;29;20068;-80
2022/08/21 00:22:18;;;;;;;14.13;8.48;;;;;;;14.98;96.09;68438.38;4900468;29;20644;-79
2022/08/21 00:24:43;;;;;;;12.32;8.27;;;;;;;14.97;96.04;68431.31;4903853;29;20119;-80
2022/08/21 00:27:08;;;;;;;11.93;8.27;;;;;;;;;;4925224;29;20067;-78
2022/08/21 00:29:33;;;;;;;10.68;7.72;;;;;;;;;;4920788;28;20652;-79
2022/08/21 00:31:59;;;;;;;11.75;8.38;;;;;;;14.80;96.40;68413.09;4916158;29;20075;-78
2022/08/21 00:34:25;;;;;;;13.68;8.30;;;;;;;14.75;96.98;68406.81;4922754;28;20043;-79
2022/08/21 00:36:50;;;;;;;14.88;8.80;;;;;;;14.71;97.58;68407.66;4920844;29;20503;-80
2022/08/21 00:39:16;;;;;;;11.93;8.95;;;;;;;14.71;97.68;68407.66;4912415;29;20131;-79
2022/08/21 00:41:42;;;;;;;13.23;8.68;;;;;;;14.72;96.83;68409.34;4915242;29;20044;-79
2022/08/21 00:44:11;;;;;;;12.65;8.90;;;;;;;14.70;97.11;68406.50;4915082;29;20052;-79
2022/08/21 00:46:37;;;;;;;12.18;8.35;;;;;;;14.62;97.26;68392.59;4929355;29;20043;-80
2022/08/21 00:49:04;;;;;;;11.80;8.38;;;;;;;14.58;97.48;68388.59;4916677;29;20047;-80
2022/08/21 00:51:35;;;;;;;14.85;8.95;;;;;;;;;;4904440;28;20051;-79
2022/08/21 00:54:03;;;;;;;11.93;8.55;;;;;;;14.50;97.65;68384.84;4893327;29;20488;-80
2022/08/21 00:56:29;;;;;;;14.73;9.38;;;;;;;;;;4890108;29;20412;-79
2022/08/21 00:58:57;;;;;;;14.10;9.02;;;;;;;14.39;98.85;68372.91;4897579;29;20040;-78
2022/08/21 01:01:22;;;;;;;14.00;9.30;;;;;;;14.36;98.71;68360.88;4911657;29;20048;-80
2022/08/21 01:03:49;;;;;;;16.10;10.05;;;;;;;14.37;99.00;68370.03;4912084;29;20404;-78
2022/08/21 01:06:14;;;;;;;13.23;9.25;;;;;;;14.34;98.52;68369.88;4904704;29;20055;-78
2022/08/21 01:08:39;;;;;;;13.90;9.57;;;;;;;14.33;98.81;68366.06;4905281;29;20044;-80
2022/08/21 01:11:05;;;;;;;15.57;10.13;;;;;;;;;;4910418;29;20040;-79
2022/08/21 01:13:35;;;;;;;13.20;9.27;;;;;;;14.18;99.22;68349.56;4889866;29;20076;-78
2022/08/21 01:16:02;;;;;;;13.73;9.88;;;;;;;;;;4889054;29;20041;-78
2022/08/21 01:18:28;;;;;;;14.82;9.70;;;;;;;14.15;99.13;68345.56;4888672;29;20159;-79
2022/08/21 01:21:06;;;;;;;14.50;9.98;;;;;;;14.11;99.17;68336.22;4898356;29;20686;-79
2022/08/21 01:23:33;;;;;;;16.13;10.00;;;;;;;14.12;99.15;68342.16;4904277;29;20047;-79
2022/08/21 01:25:59;;;;;;;12.65;9.35;;;;;;;14.09;99.23;68333.38;4895205;29;20048;-79
2022/08/21 01:28:24;;;;;;;14.02;9.45;;;;;;;14.07;99.17;68336.47;4907127;29;20051;-79
2022/08/21 01:30:51;;;;;;;16.40;10.05;;;;;;;;;;4888892;29;20037;-78
2022/08/21 01:33:20;;;;;;;16.63;10.93;;;;;;;14.04;99.93;68338.97;4907777;29;20040;-80
2022/08/21 01:35:45;;;;;;;;;;;;;;;;;;4896281;29;20040;-79
2022/08/21 01:38:11;;;;;;;15.07;11.48;;;;;;;13.88;100.00;68315.41;4891515;29;19934;-79
2022/08/21 01:40:36;;;;;;;16.20;10.52;;;;;;;;;;4892729;29;20063;-77
2022/08/21 01:43:02;;;;;;;12.98;10.70;;;;;;;13.85;100.00;68315.25;4902609;29;20056;-80
2022/08/21 01:45:28;;;;;;;16.52;10.98;;;;;;;13.86;100.00;68313.13;4899311;29;20135;-78
2022/08/21 01:47:53;;;;;;;14.18;9.68;;;;;;;;;;4898086;29;20176;-77
2022/08/21 01:50:19;;;;;;;11.60;9.90;;;;;;;;;;4898990;29;20040;-80
2022/08/21 01:52:45;;;;;;;13.80;9.88;;;;;;;13.80;100.00;68309.00;4907513;29;20336;-79
2022/08/21 01:55:11;;;;;;;14.07;10.70;;;;;;;;;;4912349;29;20040;-80
2022/08/21 01:57:36;;;;;;;15.88;11.27;;;;;;;;;;4914770;29;20124;-79
2022/08/21 02:00:08;;;;;;;14.45;11.15;;;;;;;13.75;100.00;68301.78;4913906;29;20075;-80
2022/08/21 02:02:33;;;;;;;12.98;10.60;;;;;;;13.69;100.00;68294.94;4916789;29;20052;-79
2022/08/21 02:04:59;;;;;;;17.10;10.52;;;;;;;13.68;100.00;68293.78;4927585;28;20043;-78
2022/08/21 02:07:24;;;;;;;17.08;11.05;;;;;;;;;;4919286;28;20125;-79
2022/08/21 02:09:49;;;;;;;12.35;9.90;;;;;;;13.67;100.00;68292.09;4927837;28;20043;-79
2022/08/21 02:12:15;;;;;;;12.57;9.98;;;;;;;;;;4920073;28;20128;-78
2022/08/21 02:14:40;;;;;;;14.80;10.55;;;;;;;;;;4913424;29;20064;-80
2022/08/21 02:17:06;;;;;;;12.50;10.30;;;;;;;13.59;100.00;68283.00;4910783;29;20147;-78
2022/08/21 02:19:31;;;;;;;16.13;10.13;;;;;;;13.58;100.00;68277.09;4894434;29;20049;-78
2022/08/21 02:21:56;;;;;;;15.30;10.77;;;;;;;13.54;100.00;68280.53;4901731;29;20068;-80
2022/08/21 02:24:22;;;;;;;16.05;10.85;;;;;;;13.50;100.00;68273.91;4924155;28;20103;-79
2022/08/21 02:26:47;;;;;;;14.50;11.00;;;;;;;13.47;100.00;68270.47;4919378;28;20499;-78
2022/08/21 02:29:12;;;;;;;15.13;11.65;;;;;;;13.48;100.00;68265.69;4910146;29;20037;-79
2022/08/21 02:31:38;;;;;;;16.90;10.98;;;;;;;13.46;100.00;68269.34;4900254;29;20119;-79
2022/08/21 02:34:03;;;;;;;14.23;11.15;;;;;;;13.40;100.00;68253.91;4915626;29;20466;-79
2022/08/21 02:36:29;;;;;;;13.25;10.27;;;;;;;13.35;100.00;68256.84;4915839;29;20103;-79
2022/08/21 02:38:55;;;;;;;14.13;10.45;;;;;;;13.34;100.00;68257.78;4925066;29;20032;-80
2022/08/21 02:41:21;;;;;;;12.48;10.75;;;;;;;13.34;100.00;68249.78;4906148;29;20056;-79
2022/08/21 02:43:47;;;;;;;16.98;10.95;;;;;;;;;;4904390;29;20048;-80
2022/08/21 02:46:17;;;;;;;13.90;10.70;;;;;;;13.28;100.00;68252.09;4895954;29;20041;-80
2022/08/21 02:48:42;;;;;;;12.73;10.50;;;;;;;13.25;100.00;68245.44;4915033;29;20040;-79
2022/08/21 02:51:18;;;;;;;15.23;11.20;;;;;;;13.25;100.00;68246.03;4916680;29;20424;-78
2022/08/21 02:53:44;;;;;;;14.93;11.57;;;;;;;;;;4913561;29;20048;-78
2022/08/21 02:56:12;;;;;;;13.75;10.75;;;;;;;13.18;100.00;68240.72;4900732;29;20044;-79
2022/08/21 02:58:43;;;;;;;14.55;10.57;;;;;;;13.17;100.00;68242.25;4899244;29;20041;-78
2022/08/21 03:01:10;;;;;;;15.20;11.35;;;;;;;13.15;100.00;68228.72;4907687;29;20125;-77
2022/08/21 03:03:37;;;;;;;15.00;10.77;;;;;;;13.11;100.00;68224.72;4924483;29;20418;-80
2022/08/21 03:06:05;;;;;;;16.25;11.20;;;;;;;13.07;100.00;68228.78;4921143;29;20063;-80
2022/08/21 03:08:30;;;;;;;15.95;11.02;;;;;;;;;;4922849;29;20048;-78
2022/08/21 03:10:56;;;;;;;16.30;11.40;;;;;;;13.05;100.00;68217.91;4915521;29;20051;-79
2022/08/21 03:13:21;;;;;;;15.98;11.63;;;;;;;13.02;100.00;68219.84;4916322;29;20044;-78
2022/08/21 03:15:48;;;;;;;14.10;10.68;;;;;;;;;;4913018;29;20633;-80
2022/08/21 03:18:13;;;;;;;14.52;11.13;;;;;;;12.95;100.00;68215.13;4933033;29;20056;-79
2022/08/21 03:20:40;;;;;;;14.45;11.30;;;;;;;12.94;100.00;68205.41;4926416;29;20127;-78
2022/08/21 03:23:07;;;;;;;16.27;11.65;;;;;;;12.92;100.00;68203.13;4913168;29;20056;-78
2022/08/21 03:25:33;;;;;;;14.95;11.70;;;;;;;;;;4925010;28;20573;-80
2022/08/21 03:28:00;;;;;;;14.18;12.02;;;;;;;12.86;100.00;68202.81;4921168;29;20056;-79
2022/08/21 03:30:25;;;;;;;16.42;11.40;;;;;;;;;;4904439;29;20044;-79
2022/08/21 03:32:51;;;;;;;14.85;11.57;;;;;;;12.83;100.00;68204.16;4931323;29;20048;-80
2022/08/21 03:35:17;;;;;;;15.85;11.90;;;;;;;12.78;100.00;68187.78;4924248;29;20543;-80
2022/08/21 03:37:43;;;;;;;13.45;11.32;;;;;;;12.75;100.00;68189.72;4918422;29;20528;-79
2022/08/21 03:40:11;;;;;;;16.15;11.88;;;;;;;;;;4918958;29;20036;-76
2022/08/21 03:42:36;;;;;;;18.33;12.43;;;;;;;12.70;100.00;68178.69;4915823;29;20058;-80
2022/08/21 03:45:02;;;;;;;14.57;11.55;;;;;;;;;;4924267;29;20126;-77
2022/08/21 03:47:27;;;;;;;16.77;12.35;;;;;;;12.64;100.00;68180.47;4931020;29;20112;-80
2022/08/21 03:49:53;;;;;;;16.13;13.20;;;;;;;;;;4914658;29;20082;-80
2022/08/21 03:52:18;;;;;;;15.65;11.48;;;;;;;12.61;100.00;68177.59;4931523;29;20521;-80
2022/08/21 03:54:44;;;;;;;15.35;11.70;;;;;;;;;;4914369;29;20054;-79
2022/08/21 03:57:10;;;;;;;12.75;11.35;;;;;;;12.57;100.00;68169.81;4908617;29;20144;-78
2022/08/21 03:59:36;;;;;;;15.80;11.90;;;;;;;12.53;100.00;68165.84;4903304;29;20550;-78
2022/08/21 04:02:03;;;;;;;18.17;12.48;;;;;;;12.49;100.00;68161.31;4918133;29;20508;-78
2022/08/21 04:04:29;;;;;;;15.68;12.05;;;;;;;12.50;100.00;68161.88;4914411;29;20589;-79
2022/08/21 04:06:56;;;;;;;18.08;14.25;;;;;;;12.46;100.00;68157.91;4925508;29;20047;-80
2022/08/21 04:09:22;;;;;;;16.52;13.13;;;;;;;12.42;100.00;68153.91;4928658;29;20135;-79
2022/08/21 04:11:48;;;;;;;16.75;13.75;;;;;;;12.37;100.00;68148.25;4924659;28;20134;-79
2022/08/21 04:14:14;;;;;;;15.60;13.32;;;;;;;12.31;100.00;68141.41;4918105;29;20052;-79
2022/08/21 04:16:40;;;;;;;18.00;13.77;;;;;;;12.31;100.00;68140.84;4927046;29;20681;-80
2022/08/21 04:19:06;;;;;;;18.17;14.07;;;;;;;;;;4938024;23;20396;-76
2022/08/21 04:21:32;;;;;;;16.90;13.85;;;;;;;12.30;100.00;68140.28;4948998;28;20051;-76
2022/08/21 04:23:58;;;;;;;19.67;15.23;;;;;;;12.26;100.00;68138.41;4949334;29;20043;-78
2022/08/21 04:26:23;;;;;;;20.33;14.85;;;;;;;12.29;100.00;68138.56;4946645;28;20043;-77
2022/08/21 04:28:49;;;;;;;17.40;15.15;;;;;;;12.28;100.00;68132.66;4931851;29;20513;-77
2022/08/21 04:31:14;;;;;;;17.08;14.57;;;;;;;;;;4922504;29;20043;-77
2022/08/21 04:33:39;;;;;;;17.58;15.35;;;;;;;;;;4928798;29;20067;-77
2022/08/21 04:36:06;;;;;;;18.02;15.48;;;;;;;12.26;100.00;68135.16;4930719;29;20071;-77
2022/08/21 04:38:32;;;;;;;19.65;15.52;;;;;;;;;;4929290;29;20044;-77
2022/08/21 04:40:57;;;;;;;21.45;15.07;;;;;;;12.25;100.00;68134.03;4930377;29;20042;-77
2022/08/21 04:43:23;;;;;;;17.98;14.07;;;;;;;12.23;100.00;68132.31;4929204;29;20579;-77
2022/08/21 04:45:50;;;;;;;19.55;16.10;;;;;;;12.19;100.00;68127.78;4921191;29;20122;-77
2022/08/21 04:48:17;;;;;;;17.60;14.90;;;;;;;;;;4939403;29;20043;-77
2022/08/21 04:51:16;;;;;;;19.83;14.70;;;;;;;12.20;100.00;68131.59;4929999;29;20040;-77
2022/08/21 04:53:48;;;;;;;19.08;14.20;;;;;;;12.21;100.00;68129.47;4931163;29;20038;-77
2022/08/21 04:56:34;;;;;;;20.10;15.38;;;;;;;12.25;100.00;68134.03;4936531;29;20050;-77
2022/08/21 04:59:02;;;;;;;25.13;16.90;;;;;;;;;;4932485;28;20971;-76
2022/08/21 05:01:31;;;;;;;18.00;14.65;;;;;;;12.29;100.00;68141.81;4935477;29;20063;-76
2022/08/21 05:03:59;;;;;;;20.10;15.95;;;;;;;12.27;100.00;68136.31;4931415;29;20055;-77
2022/08/21 05:06:25;;;;;;;21.75;15.93;;;;;;;;;;4928335;29;20063;-77
2022/08/21 05:08:55;;;;;;;18.05;14.65;;;;;;;12.37;100.00;68142.31;4930267;29;20126;-78
2022/08/21 05:11:21;;;;;;;16.70;14.93;;;;;;;12.37;100.00;68148.25;4921584;29;20535;-77
2022/08/21 05:13:48;;;;;;;20.48;15.13;;;;;;;12.41;100.00;68146.88;4929091;29;20046;-78
2022/08/21 05:16:13;;;;;;;17.50;15.05;;;;;;;12.48;100.00;68159.59;4926827;29;20321;-77
2022/08/21 05:18:39;;;;;;;19.25;15.80;;;;;;;12.54;100.00;68166.41;4942355;28;20039;-77
2022/08/21 05:21:04;;;;;;;17.38;15.57;;;;;;;;;;4932087;29;20072;-77
2022/08/21 05:23:30;;;;;;;17.20;15.02;;;;;;;;;;4930585;29;20050;-76
2022/08/21 05:25:55;;;;;;;18.75;15.90;;;;;;;12.70;100.00;68184.59;4929377;29;20070;-78
2022/08/21 05:28:21;;;;;;;19.67;16.92;;;;;;;12.70;100.00;68184.03;4934646;29;20711;-76
2022/08/21 05:30:46;;;;;;;20.27;17.13;;;;;;;12.80;100.00;68195.97;4933043;28;20460;-77
2022/08/21 05:33:11;;;;;;;20.25;17.00;;;;;;;;;;4936972;29;20047;-77
2022/08/21 05:35:38;;;;;;;20.77;17.40;;;;;;;13.11;100.00;68232.75;4933452;29;20054;-77
2022/08/21 05:38:03;;;;;;;23.75;18.75;;;;;;;;;;4913494;29;20307;-77
2022/08/21 05:40:29;;;;;;;25.70;19.35;;;;;;;13.41;100.00;68257.75;4910109;29;20072;-77
2022/08/21 05:42:55;;;;;;;22.52;19.33;;;;;;;13.53;100.00;68277.31;4925904;28;20055;-77
2022/08/21 05:45:34;;;;;;;25.02;19.02;;;;;;;13.68;100.00;68293.22;4932728;28;20042;-76
2022/08/21 05:48:06;;;;;;;23.02;20.52;;;;;;;13.81;100.00;68310.72;4917118;29;20059;-77
2022/08/21 05:50:32;;;;;;;23.73;19.85;;;;;;;13.91;100.00;68318.84;4925223;29;20507;-77
2022/08/21 05:52:57;;;;;;;23.33;19.13;;;;;;;;;;4928311;29;20074;-77
2022/08/21 05:55:22;;;;;;;23.43;18.90;;;;;;;;;;4927853;29;20131;-77
2022/08/21 05:57:47;;;;;;;20.75;17.70;;;;;;;;;;4927153;29;20323;-77
2022/08/21 06:00:14;;;;;;;21.65;18.55;;;;;;;14.35;100.00;68367.75;4928517;28;20052;-77
2022/08/21 06:02:40;;;;;;;20.23;16.90;;;;;;;14.48;100.00;68377.22;4930071;28;20067;-77
2022/08/21 06:05:06;;;;;;;22.27;17.13;;;;;;;14.58;100.00;68393.97;4932776;28;20048;-76
2022/08/21 06:07:32;;;;;;;22.85;17.05;;;;;;;;;;4935004;29;20044;-76
2022/08/21 06:09:57;;;;;;;18.52;16.05;;;;;;;14.85;99.48;68418.22;4930865;29;20123;-77
2022/08/21 06:12:22;;;;;;;18.77;16.77;;;;;;;14.95;98.83;68437.06;4932668;28;20122;-77
2022/08/21 06:14:48;;;;;;;18.45;15.93;;;;;;;15.08;98.21;68444.41;4928839;28;20134;-77
2022/08/21 06:17:15;;;;;;;18.65;14.73;;;;;;;15.17;98.01;68451.41;4938207;28;20050;-77
2022/08/21 06:19:40;;;;;;;17.27;14.43;;;;;;;15.26;97.15;68464.34;4941550;28;20070;-77
2022/08/21 06:22:06;;;;;;;18.17;14.52;;;;;;;15.38;96.54;68477.44;4930414;29;20118;-77
2022/08/21 06:24:31;;;;;;;17.25;14.05;;;;;;;15.51;96.38;68489.56;4931792;29;20056;-77
2022/08/21 06:26:57;;;;;;;17.55;12.70;;;;;;;15.65;95.67;68507.06;4933500;28;20047;-77
2022/08/21 06:29:22;;;;;;;19.42;12.70;;;;;;;;;;4934760;28;20558;-77
2022/08/21 06:31:49;;;;;;;15.38;12.35;;;;;;;;;;4931424;29;20459;-77
2022/08/21 06:34:15;;;;;;;15.20;11.82;;;;;;;;;;4932058;29;20047;-77
2022/08/21 06:36:40;;;;;;;13.00;10.93;;;;;;;16.12;92.13;68559.50;4925183;29;20052;-77
2022/08/21 06:39:06;;;;;;;14.05;11.15;;;;;;;16.23;91.69;68572.03;4932948;29;20036;-77
2022/08/21 06:41:31;;;;;;;11.68;10.30;;;;;;;;;;4932330;28;20551;-76
2022/08/21 06:43:57;;;;;;;16.17;11.48;;;;;;;16.52;90.55;68609.91;4946943;29;20056;-77
2022/08/21 06:46:24;;;;;;;12.98;10.98;;;;;;;16.56;90.02;68608.53;4933994;28;20044;-77
2022/08/21 06:48:50;;;;;;;13.13;10.90;;;;;;;16.66;89.48;68619.94;4931048;29;20047;-76
2022/08/21 06:51:15;;;;;;;11.82;9.82;;;;;;;16.80;88.58;68635.91;4924274;29;20050;-77
2022/08/21 06:53:42;;;;;;;12.98;10.48;;;;;;;16.98;87.53;68660.69;4931361;29;20452;-78
2022/08/21 06:56:08;;;;;;;16.98;10.45;;;;;;;;;;4929724;29;20068;-78
2022/08/21 06:58:33;;;;;;;14.38;10.15;;;;;;;17.28;86.74;68688.94;4936574;29;20052;-78
2022/08/21 07:00:59;;;;;;;15.00;9.77;;;;;;;17.41;85.93;68703.22;4933578;29;20051;-78
2022/08/21 07:03:28;;;;;;;15.18;10.07;;;;;;;17.55;85.39;68719.16;4934391;29;20048;-77
2022/08/21 07:05:54;;;;;;;16.08;10.18;;;;;;;17.69;84.70;68731.88;4935178;28;20070;-77
2022/08/21 07:08:20;;;;;;;12.18;9.55;;;;;;;17.75;83.61;68747.41;4935840;29;20044;-78
2022/08/21 07:10:48;;;;;;;14.73;10.68;;;;;;;17.89;83.97;68757.44;4935747;29;20040;-78
2022/08/21 07:13:13;;;;;;;15.80;9.73;;;;;;;;;;4936229;29;20062;-78
2022/08/21 07:15:39;;;;;;;11.52;9.10;;;;;;;18.04;82.60;68774.00;4933218;29;20503;-75
2022/08/21 07:18:04;;;;;;;14.98;9.60;;;;;;;;;;4950070;28;20073;-77
2022/08/21 07:20:31;;;;;;;15.75;9.68;;;;;;;18.19;81.73;68791.09;4929300;29;20062;-78
2022/08/21 07:22:58;;;;;;;14.73;9.48;;;;;;;;;;4934891;29;20134;-78
2022/08/21 07:25:24;;;;;;;12.98;8.65;;;;;;;18.36;80.54;68809.38;4933416;29;20055;-76
2022/08/21 07:27:49;;;;;;;12.55;7.78;;;;;;;18.41;80.25;68815.66;4930534;29;20040;-76
2022/08/21 07:30:14;;;;;;;12.88;8.25;;;;;;;18.47;79.53;68827.31;4935627;29;20036;-77
2022/08/21 07:32:40;;;;;;;12.38;7.68;;;;;;;18.55;79.21;68831.06;4935244;29;20066;-78
2022/08/21 07:35:05;;;;;;;11.93;7.72;;;;;;;18.60;78.44;68836.78;4936021;29;20047;-78
2022/08/21 07:37:31;;;;;;;12.38;6.78;;;;;;;18.63;78.12;68840.19;4933286;29;20052;-77
2022/08/21 07:39:56;;;;;;;11.75;6.03;;;;;;;18.69;77.73;68855.13;4943484;28;20039;-78
2022/08/21 07:42:22;;;;;;;9.02;6.30;;;;;;;;;;4933511;28;20126;-78
2022/08/21 07:44:47;;;;;;;14.50;6.57;;;;;;;18.66;76.90;68849.00;4932601;28;20067;-78
2022/08/21 07:47:12;;;;;;;9.88;5.90;;;;;;;;;;4932696;29;20651;-78
2022/08/21 07:49:38;;;;;;;9.87;6.60;;;;;;;18.87;76.89;68867.06;4931089;29;20050;-78
2022/08/21 07:52:03;;;;;;;12.60;6.50;;;;;;;18.87;75.79;68864.38;4930546;28;20453;-77
2022/08/21 07:54:28;;;;;;;11.13;7.18;;;;;;;18.85;75.43;68864.78;4937092;28;20044;-77
2022/08/21 07:56:54;;;;;;;9.90;6.00;;;;;;;18.93;76.31;68873.34;4930229;28;20039;-78
2022/08/21 07:59:19;;;;;;;14.85;6.78;;;;;;;18.93;75.35;68873.34;4930551;29;20835;-77
2022/08/21 08:01:45;;;;;;;12.45;5.78;;;;;;;18.97;74.40;68877.91;4930305;29;20048;-77
2022/08/21 08:04:10;;;;;;;9.48;5.60;;;;;;;18.96;74.63;68876.78;4930601;29;20050;-78
2022/08/21 08:06:36;;;;;;;9.02;5.65;;;;;;;19.02;74.01;68883.63;4930273;29;20431;-77
2022/08/21 08:09:03;;;;;;;9.40;5.82;;;;;;;19.04;74.39;68885.91;4932471;28;20126;-78
2022/08/21 08:11:29;;;;;;;9.60;5.22;;;;;;;19.15;73.60;68897.91;4925949;29;20060;-77
2022/08/21 08:13:56;;;;;;;9.30;5.53;;;;;;;19.24;73.86;68907.59;4917112;29;20051;-78
2022/08/21 08:16:21;;;;;;;13.02;6.68;;;;;;;19.16;74.17;68899.63;4918496;29;20487;-78
2022/08/21 08:18:47;;;;;;;10.73;6.43;;;;;;;19.25;74.03;68909.34;4925457;29;20062;-77
2022/08/21 08:21:12;;;;;;;13.82;7.20;;;;;;;;;;4934784;29;20046;-77
2022/08/21 08:23:38;;;;;;;10.13;6.93;;;;;;;;;;4932539;29;20483;-78
2022/08/21 08:26:04;;;;;;;10.63;6.10;;;;;;;19.35;74.21;68918.03;4933298;29;20044;-78
2022/08/21 08:28:31;;;;;;;9.88;5.38;;;;;;;19.48;73.54;68935.03;4931001;29;20695;-77
2022/08/21 08:30:57;;;;;;;12.00;7.50;;;;;;;19.46;73.48;68932.75;4933215;29;20044;-78
2022/08/21 08:33:22;;;;;;;9.68;6.18;;;;;;;;;;4934132;29;20036;-77
2022/08/21 08:35:49;;;;;;;13.70;6.15;;;;;;;19.54;71.38;68939.19;4927887;29;20040;-78
2022/08/21 08:38:18;;;;;;;10.95;5.82;;;;;;;19.42;71.22;68927.59;4929761;29;20550;-78
2022/08/21 08:40:53;;;;;;;10.45;4.63;;;;;;;19.46;71.17;68927.34;4945379;28;20047;-76
2022/08/21 08:43:18;;;;;;;10.95;5.88;;;;;;;;;;4930284;29;20130;-77
2022/08/21 08:45:48;;;;;;;9.85;7.53;;;;;;;19.46;71.99;68932.19;4929961;29;20486;-77
2022/08/21 08:48:19;;;;;;;11.45;6.50;;;;;;;;;;4927520;29;20035;-77
2022/08/21 08:50:57;;;;;;;9.65;4.68;;;;;;;19.71;70.33;68960.78;4929766;29;20058;-77
2022/08/21 08:53:33;;;;;;;6.93;3.57;;;;;;;19.82;69.41;68967.34;4926432;29;20091;-77
2022/08/21 08:56:00;;;;;;;7.78;2.92;;;;;;;19.88;68.31;68976.94;4926316;29;20522;-77
2022/08/21 08:58:30;;;;;;;7.00;2.55;;;;;;;;;;4928908;29;20047;-77
2022/08/21 09:00:56;;;;;;;6.32;2.85;;;;;;;20.11;67.18;69004.78;4929797;29;20118;-77
2022/08/21 09:03:25;;;;;;;5.55;2.60;;;;;;;;;;4926201;29;20092;-77
2022/08/21 09:06:11;;;;;;;9.88;2.75;;;;;;;20.04;66.53;68994.63;4922957;29;20055;-77
2022/08/21 09:08:58;;;;;;;6.63;2.50;;;;;;;19.96;66.79;68986.06;4929625;29;20048;-77
2022/08/21 09:11:38;;;;;;;5.70;2.92;;;;;;;19.79;67.15;68969.91;4928582;29;20039;-77
2022/08/21 09:14:26;;;;;;;6.68;2.65;;;;;;;19.66;67.68;68949.66;4922489;29;20042;-77
2022/08/21 09:17:04;;;;;;;7.53;2.85;;;;;;;19.75;68.17;68965.34;4929020;29;20040;-77
2022/08/21 09:19:51;;;;;;;5.13;2.42;;;;;;;20.15;66.32;69004.50;4923400;29;20555;-77
2022/08/21 09:22:30;;;;;;;6.22;2.92;;;;;;;20.17;67.03;69011.63;4930306;29;20048;-77
2022/08/21 09:24:58;;;;;;;7.32;2.85;;;;;;;;;;4930046;29;20094;-78
2022/08/21 09:27:25;;;;;;;4.93;2.40;;;;;;;20.12;65.47;69011.91;4929863;29;20047;-77
2022/08/21 09:29:54;;;;;;;5.68;2.17;;;;;;;20.20;65.07;69015.06;4925528;29;20744;-78
2022/08/21 09:32:20;;;;;;;6.10;2.00;;;;;;;20.26;65.25;69017.09;4929991;29;20565;-77
2022/08/21 09:35:05;;;;;;;6.43;2.38;;;;;;;20.46;64.89;69044.78;4914841;29;20084;-77
2022/08/21 09:37:34;;;;;;;6.75;2.60;;;;;;;20.59;63.78;69058.53;4928112;29;20599;-78
2022/08/21 09:40:00;;;;;;;;;;;;;;;20.76;64.36;69077.97;4930165;29;20102;-77
2022/08/21 09:42:29;;;;;;;5.43;1.83;;;;;;;20.80;63.49;69082.56;4932080;29;19939;-77
2022/08/21 09:45:17;;;;;;;8.05;2.55;;;;;;;20.90;62.85;69093.41;4931356;29;20055;-77
2022/08/21 09:47:45;;;;;;;8.25;2.03;;;;;;;20.88;62.89;69091.69;4928008;29;20043;-77
2022/08/21 09:50:17;;;;;;;5.50;2.08;;;;;;;21.00;61.66;69099.44;4928145;29;20119;-77
2022/08/21 09:52:46;;;;;;;5.80;1.73;;;;;;;20.96;60.48;69100.28;4924232;29;20460;-78
2022/08/21 09:58:04;;;;;;;3.63;1.60;;;;;;;20.98;60.81;69099.31;4960650;28;21187;-77
2022/08/21 10:00:32;;;;;;;5.45;1.42;;;;;;;21.18;59.36;69124.88;4927574;29;20150;-77
2022/08/21 10:03:20;;;;;;;3.90;1.27;;;;;;;;;;4933651;29;20051;-77
2022/08/21 10:05:57;;;;;;;7.70;2.58;;;;;;;21.23;59.24;69130.59;4930679;28;20039;-77
2022/08/21 10:08:24;;;;;;;5.32;2.30;;;;;;;;;;4926652;29;20043;-77
2022/08/21 10:11:12;;;;;;;6.40;2.03;;;;;;;21.31;58.04;69134.34;4929027;29;20043;-77
2022/08/21 10:13:51;;;;;;;6.47;1.90;;;;;;;21.45;57.97;69155.22;4926880;29;20040;-78
2022/08/21 10:16:36;;;;;;;3.80;1.50;;;;;;;21.66;56.52;69178.69;4917405;29;20048;-77
2022/08/21 10:19:06;;;;;;;7.18;1.58;;;;;;;21.69;56.05;69179.41;4919559;29;20036;-77
2022/08/21 10:22:03;;;;;;;4.85;1.77;;;;;;;21.62;56.93;69174.09;4920776;29;20100;-78
2022/08/21 10:24:33;;;;;;;4.60;1.55;;;;;;;21.88;57.06;69197.88;4915223;29;20066;-78
2022/08/21 10:27:19;;;;;;;5.45;2.00;;;;;;;21.86;55.09;69201.56;4912970;29;20048;-77
2022/08/21 10:29:51;;;;;;;4.80;1.92;;;;;;;21.86;55.95;69201.56;4925690;29;20051;-77
2022/08/21 10:32:24;;;;;;;4.95;1.40;;;;;;;22.14;53.84;69232.47;4931774;29;20063;-78
2022/08/21 10:35:31;;;;;;;4.22;1.23;;;;;;;22.37;54.38;69255.56;4926161;29;20040;-77
2022/08/21 10:38:15;;;;;;;3.88;1.40;;;;;;;22.47;53.46;69269.13;4930165;29;20040;-79
2022/08/21 10:40:56;;;;;;;5.95;1.80;;;;;;;22.49;53.45;69272.00;4935502;29;20047;-78
2022/08/21 10:43:27;;;;;;;5.55;1.50;;;;;;;22.59;54.46;69277.47;4925689;29;20142;-78
2022/08/21 10:46:12;;;;;;;6.32;1.70;;;;;;;22.85;53.67;69309.38;4923025;29;20066;-77
2022/08/21 10:48:55;;;;;;;6.45;1.88;;;;;;;22.93;52.72;69320.69;4928125;29;20671;-78
2022/08/21 10:51:46;;;;;;;5.57;2.00;;;;;;;22.83;52.86;69307.09;4941101;28;20075;-79
2022/08/21 10:54:23;;;;;;;5.10;1.48;;;;;;;22.75;53.38;69301.19;4908528;28;20040;-78
2022/08/21 10:56:56;;;;;;;5.63;1.65;;;;;;;22.91;52.40;69312.97;4919432;29;20052;-78
2022/08/21 10:59:41;;;;;;;4.50;1.15;;;;;;;23.03;51.55;69332.16;4930972;29;20036;-78
2022/08/21 11:02:16;;;;;;;3.97;1.30;;;;;;;;;;4945137;29;20046;-78
2022/08/21 11:04:59;;;;;;;4.78;1.48;;;;;;;23.20;51.06;69346.22;4931519;29;20047;-78
2022/08/21 11:07:36;;;;;;;6.60;2.10;;;;;;;23.41;51.56;69375.13;4930641;29;20047;-77
2022/08/21 11:10:17;;;;;;;7.82;1.77;;;;;;;23.25;52.58;69351.38;4928905;29;20071;-76
2022/08/21 11:12:51;;;;;;;5.32;1.73;;;;;;;23.54;52.83;69386.16;4926049;29;20123;-76
2022/08/21 11:15:31;;;;;;;7.25;1.85;;;;;;;23.76;50.83;69413.53;4928032;29;20071;-76
2022/08/21 11:18:15;;;;;;;5.20;2.17;;;;;;;23.54;52.52;69386.75;4924168;29;20050;-75
2022/08/21 11:20:48;;;;;;;7.10;2.08;;;;;;;23.54;52.18;69386.75;4928570;29;20055;-76
2022/08/21 11:23:30;;;;;;;7.03;2.08;;;;;;;23.40;52.55;69370.69;4929577;29;20082;-76
2022/08/21 11:26:04;;;;;;;5.57;1.80;;;;;;;23.24;52.87;69355.66;4927631;29;20548;-78
2022/08/21 11:28:57;;;;;;;5.68;2.10;;;;;;;23.20;52.91;69348.34;4931494;29;20039;-76
2022/08/21 11:31:22;;;;;;;8.13;2.22;;;;;;;23.29;53.15;69361.38;4912813;29;20601;-78
2022/08/21 11:34:08;;;;;;;5.38;2.00;;;;;;;23.47;53.04;69376.00;4930378;29;20048;-78
2022/08/21 11:36:43;;;;;;;6.07;1.95;;;;;;;23.58;53.34;69388.59;4919160;29;20070;-76
2022/08/21 11:39:17;;;;;;;8.98;2.58;;;;;;;23.54;53.64;69388.88;4930618;29;20048;-78
2022/08/21 11:42:22;;;;;;;5.75;1.95;;;;;;;23.53;53.21;69385.59;4928907;29;20039;-78
2022/08/21 11:45:19;;;;;;;7.75;2.30;;;;;;;23.38;51.67;69368.97;4906648;29;20036;-78
2022/08/21 11:48:06;;;;;;;8.27;2.50;;;;;;;23.22;52.95;69353.38;4929007;29;20182;-78
2022/08/21 11:50:32;;;;;;;5.35;2.17;;;;;;;23.26;53.80;69357.94;4928864;29;20517;-78
2022/08/21 11:53:03;;;;;;;5.95;2.10;;;;;;;23.14;55.30;69339.34;4929150;29;20043;-78
2022/08/21 11:55:44;;;;;;;5.07;1.83;;;;;;;23.45;54.90;69375.84;4930601;29;20487;-78
2022/08/21 11:58:13;;;;;;;8.27;2.50;;;;;;;23.47;53.52;69378.72;4940269;28;20151;-78
2022/08/21 12:00:41;;;;;;;5.97;2.00;;;;;;;23.70;53.41;69403.91;4912000;29;20079;-77
2022/08/21 12:03:28;;;;;;;5.05;2.15;;;;;;;23.91;52.70;69430.75;4925186;29;20063;-78
2022/08/21 12:06:04;;;;;;;4.05;2.05;;;;;;;24.01;51.94;69436.75;4926207;29;20047;-78
2022/08/21 12:08:35;;;;;;;5.45;1.90;;;;;;;24.00;50.89;69437.78;4924207;29;20050;-79